createdAt,value
2024-01-07T00:01:56.465Z,100543.73
2024-01-07T00:06:58.816Z,100544.01
2024-01-07T00:12:33.295Z,100543.91
2024-01-07T00:17:35.300Z,100554.84
2024-01-07T00:22:37.461Z,100561.99
2024-01-07T00:27:39.751Z,100560.30
2024-01-07T00:32:51.763Z,100564.98
2024-01-07T00:37:59.786Z,100562.02
2024-01-07T00:43:20.002Z,100564.88
2024-01-07T00:48:22.497Z,100567.53
2024-01-07T00:53:24.668Z,100570.06
2024-01-07T00:58:26.718Z,100571.79
2024-01-07T01:03:37.483Z,100576.89
2024-01-07T01:09:00.393Z,100584.16
2024-01-07T01:14:02.742Z,100584.88
2024-01-07T01:19:25.193Z,100579.39
2024-01-07T01:24:57.666Z,100583.71
2024-01-07T01:29:59.837Z,100583.05
2024-01-07T01:35:05.746Z,100589.24
2024-01-07T01:40:17.474Z,100597.02
2024-01-07T01:45:19.888Z,100600.19
2024-01-07T01:50:23.048Z,100608.30
2024-01-07T01:55:25.260Z,100608.60
2024-01-07T02:00:27.901Z,100608.48
2024-01-07T02:05:30.027Z,100615.41
2024-01-07T02:10:35.027Z,100614.14
2024-01-07T02:15:37.197Z,100613.43
2024-01-07T02:20:39.293Z,100617.34
2024-01-07T02:25:52.639Z,100616.19
2024-01-07T02:30:57.130Z,100619.88
2024-01-07T02:35:59.223Z,100617.52
2024-01-07T02:41:08.532Z,100615.85
2024-01-07T02:46:10.544Z,100623.73
2024-01-07T02:51:12.582Z,100625.15
2024-01-07T02:56:14.825Z,100627.73
2024-01-07T03:01:22.191Z,100622.29
2024-01-07T03:06:28.368Z,100619.98
2024-01-07T03:11:30.603Z,100619.38
2024-01-07T03:16:32.775Z,100622.95
2024-01-07T03:21:37.601Z,100619.86
2024-01-07T03:26:39.750Z,100621.61
2024-01-07T03:31:41.725Z,100617.36
2024-01-07T03:36:43.943Z,100621.57
2024-01-07T03:41:45.972Z,100628.55
2024-01-07T03:46:47.857Z,100621.20
2024-01-07T03:51:49.867Z,100625.41
2024-01-07T03:57:03.869Z,100635.84
2024-01-07T04:02:08.585Z,100638.98
2024-01-07T04:07:10.845Z,100641.76
2024-01-07T04:12:13.214Z,100642.61
2024-01-07T04:17:15.166Z,100644.45
2024-01-07T04:22:17.073Z,100647.23
2024-01-07T04:27:19.229Z,100646.41
2024-01-07T04:32:21.185Z,100655.44
2024-01-07T04:37:23.096Z,100654.53
2024-01-07T04:42:25.129Z,100655.41
2024-01-07T04:47:29.355Z,100658.11
2024-01-07T04:52:31.302Z,100664.05
2024-01-07T04:57:33.168Z,100660.84
2024-01-07T05:02:35.220Z,100662.07
2024-01-07T05:07:38.298Z,100658.83
2024-01-07T05:12:40.263Z,100663.25
2024-01-07T05:17:42.266Z,100660.64
2024-01-07T05:22:44.323Z,100656.69
2024-01-07T05:27:46.206Z,100659.70
2024-01-07T05:32:48.258Z,100670.20
2024-01-07T05:37:50.215Z,100677.28
2024-01-07T05:42:52.192Z,100689.34
2024-01-07T05:47:54.113Z,100696.16
2024-01-07T05:52:56.321Z,100697.21
2024-01-07T05:57:58.884Z,100703.69
2024-01-07T06:03:01.315Z,100708.62
2024-01-07T06:08:04.463Z,100716.96
2024-01-07T06:13:06.722Z,100718.89
2024-01-07T06:18:08.759Z,100716.27
2024-01-07T06:23:10.680Z,100716.02
2024-01-07T06:28:12.710Z,100716.36
2024-01-07T06:33:15.670Z,100720.39
2024-01-07T06:38:17.823Z,100723.80
2024-01-07T06:43:19.832Z,100731.20
2024-01-07T06:48:22.004Z,100737.59
2024-01-07T06:53:24.161Z,100736.56
2024-01-07T06:58:26.236Z,100735.56
2024-01-07T07:03:28.344Z,100732.83
2024-01-07T07:08:30.536Z,100733.36
2024-01-07T07:13:32.541Z,100741.35
2024-01-07T07:18:34.765Z,100748.16
2024-01-07T07:23:36.851Z,100760.31
2024-01-07T07:28:38.776Z,100765.89
2024-01-07T07:33:41.262Z,100774.09
2024-01-07T07:38:43.437Z,100781.17
2024-01-07T07:43:48.007Z,100780.27
2024-01-07T07:48:50.214Z,100772.05
2024-01-07T07:53:52.655Z,100780.35
2024-01-07T07:58:54.790Z,100784.98
2024-01-07T08:03:57.094Z,100790.38
2024-01-07T08:08:59.494Z,100792.64
2024-01-07T08:14:06.569Z,100798.19
2024-01-07T08:19:08.718Z,100811.05
2024-01-07T08:24:11.849Z,100813.21
2024-01-07T08:29:13.937Z,100809.29
2024-01-07T08:34:22.004Z,100813.92
2024-01-07T08:39:26.350Z,100818.45
2024-01-07T08:44:28.609Z,100818.56
2024-01-07T08:49:33.837Z,100819.63
2024-01-07T08:54:36.311Z,100824.29
2024-01-07T08:59:38.461Z,100824.83
2024-01-07T09:04:40.598Z,100830.48
2024-01-07T09:09:42.822Z,100832.85
2024-01-07T09:14:44.832Z,100840.46
2024-01-07T09:19:47.012Z,100839.21
2024-01-07T09:24:50.585Z,100839.88
2024-01-07T09:29:53.925Z,100844.85
2024-01-07T09:34:56.444Z,100854.55
2024-01-07T09:39:59.059Z,100858.09
2024-01-07T09:45:06.809Z,100861.32
2024-01-07T09:50:10.337Z,100858.48
2024-01-07T09:55:27.785Z,100856.11
2024-01-07T10:00:30.293Z,100855.55
2024-01-07T10:05:32.905Z,100849.99
2024-01-07T10:10:48.189Z,100849.99
2024-01-07T10:15:50.355Z,100846.54
2024-01-07T10:20:55.898Z,100841.30
2024-01-07T10:26:03.320Z,100845.86
2024-01-07T10:31:08.041Z,100849.63
2024-01-07T10:36:10.520Z,100850.69
2024-01-07T10:41:13.040Z,100847.55
2024-01-07T10:46:16.458Z,100849.44
2024-01-07T10:51:21.000Z,100852.23
2024-01-07T10:56:24.972Z,100848.52
2024-01-07T11:01:27.385Z,100843.64
2024-01-07T11:06:44.227Z,100845.02
2024-01-07T11:12:08.555Z,100843.80
2024-01-07T11:17:30.734Z,100843.39
2024-01-07T11:22:41.998Z,100841.14
2024-01-07T11:27:44.114Z,100846.26
2024-01-07T11:32:52.338Z,100847.45
2024-01-07T11:37:55.140Z,100846.55
2024-01-07T11:42:57.387Z,100844.77
2024-01-07T11:47:59.532Z,100843.42
2024-01-07T11:53:01.974Z,100846.41
2024-01-07T11:58:04.806Z,100844.02
2024-01-07T12:03:10.373Z,100835.24
2024-01-07T12:08:13.069Z,100834.73
2024-01-07T12:13:16.872Z,100840.70
2024-01-07T12:18:20.924Z,100848.27
2024-01-07T12:23:23.313Z,100845.48
2024-01-07T12:28:31.573Z,100846.85
2024-01-07T12:33:34.328Z,100855.08
2024-01-07T12:38:39.991Z,100855.39
2024-01-07T12:43:42.017Z,100856.59
2024-01-07T12:48:44.156Z,100856.25
2024-01-07T12:53:51.527Z,100854.67
2024-01-07T12:58:53.441Z,100858.17
2024-01-07T13:03:55.869Z,100855.61
2024-01-07T13:08:58.135Z,100857.11
2024-01-07T13:14:02.237Z,100864.00
2024-01-07T13:19:04.963Z,100861.42
2024-01-07T13:24:07.333Z,100870.86
2024-01-07T13:29:09.365Z,100883.08
2024-01-07T13:34:14.997Z,100887.40
2024-01-07T13:39:18.088Z,100893.23
2024-01-07T13:44:20.617Z,100902.90
2024-01-07T13:49:23.205Z,100904.87
2024-01-07T13:54:25.254Z,100910.59
2024-01-07T13:59:27.503Z,100912.98
2024-01-07T14:04:29.675Z,100919.17
2024-01-07T14:09:32.090Z,100921.61
2024-01-07T14:14:34.374Z,100925.49
2024-01-07T14:19:36.504Z,100931.20
2024-01-07T14:24:38.531Z,100932.95
2024-01-07T14:29:40.556Z,100936.98
2024-01-07T14:34:43.054Z,100934.48
2024-01-07T14:39:46.123Z,100936.41
2024-01-07T14:44:51.296Z,100938.33
2024-01-07T14:49:53.717Z,100936.45
2024-01-07T14:54:57.068Z,100947.13
2024-01-07T14:59:58.913Z,100947.94
2024-01-07T15:05:01.227Z,100957.55
2024-01-07T15:10:03.733Z,100957.33
2024-01-07T15:15:07.365Z,100964.55
2024-01-07T15:20:09.864Z,100973.67
2024-01-07T15:25:12.090Z,100976.61
2024-01-07T15:30:22.450Z,100985.33
2024-01-07T15:35:49.302Z,100989.07
2024-01-07T15:40:51.610Z,100994.16
2024-01-07T15:45:57.172Z,100999.48
2024-01-07T15:50:59.602Z,101002.79
2024-01-07T15:56:04.331Z,101004.88
2024-01-07T16:01:07.661Z,101016.72
2024-01-07T16:06:10.135Z,101015.01
2024-01-07T16:11:17.097Z,101016.79
2024-01-07T16:16:21.915Z,101021.19
2024-01-07T16:21:24.026Z,101027.88
2024-01-07T16:26:25.947Z,101026.16
2024-01-07T16:31:28.195Z,101026.26
2024-01-07T16:36:30.441Z,101040.55
2024-01-07T16:41:32.905Z,101052.61
2024-01-07T16:46:36.799Z,101052.08
2024-01-07T16:51:39.216Z,101063.58
2024-01-07T16:56:42.262Z,101071.52
2024-01-07T17:01:45.166Z,101076.95
2024-01-07T17:06:49.453Z,101078.94
2024-01-07T17:11:51.546Z,101090.53
2024-01-07T17:16:55.459Z,101088.46
2024-01-07T17:21:57.533Z,101093.56
2024-01-07T17:27:00.032Z,101096.72
2024-01-07T17:32:02.117Z,101100.11
2024-01-07T17:37:04.656Z,101109.46
2024-01-07T17:42:08.524Z,101108.52
2024-01-07T17:47:10.763Z,101108.86
2024-01-07T17:52:13.656Z,101107.86
2024-01-07T17:57:16.052Z,101121.17
2024-01-07T18:02:18.264Z,101127.52
2024-01-07T18:07:20.434Z,101129.56
2024-01-07T18:12:24.242Z,101131.55
2024-01-07T18:17:26.433Z,101138.73
2024-01-07T18:22:29.030Z,101144.10
2024-01-07T18:27:31.322Z,101149.13
2024-01-07T18:32:35.169Z,101154.58
2024-01-07T18:37:37.765Z,101160.98
2024-01-07T18:42:40.021Z,101169.46
2024-01-07T18:47:44.050Z,101176.97
2024-01-07T18:52:46.951Z,101170.67
2024-01-07T18:57:49.769Z,101175.50
2024-01-07T19:02:51.986Z,101182.31
2024-01-07T19:07:54.253Z,101186.71
2024-01-07T19:12:56.424Z,101195.09
2024-01-07T19:17:58.544Z,101197.17
2024-01-07T19:23:04.672Z,101204.23
2024-01-07T19:28:06.756Z,101208.33
2024-01-07T19:33:09.249Z,101218.85
2024-01-07T19:38:12.377Z,101225.96
2024-01-07T19:43:16.039Z,101234.54
2024-01-07T19:48:18.030Z,101240.80
2024-01-07T19:53:29.849Z,101231.67
2024-01-07T19:58:33.231Z,101234.24
2024-01-07T20:03:41.848Z,101238.41
2024-01-07T20:08:49.694Z,101244.52
2024-01-07T20:13:52.506Z,101247.16
2024-01-07T20:18:54.754Z,101252.67
2024-01-07T20:24:01.680Z,101262.27
2024-01-07T20:29:08.139Z,101270.58
2024-01-07T20:34:11.215Z,101270.31
2024-01-07T20:39:13.253Z,101280.77
2024-01-07T20:44:15.218Z,101288.12
2024-01-07T20:49:17.979Z,101298.36
2024-01-07T20:54:20.046Z,101292.94
2024-01-07T20:59:22.180Z,101292.38
2024-01-07T21:04:24.508Z,101295.17
2024-01-07T21:09:26.604Z,101291.94
2024-01-07T21:14:28.794Z,101296.94
2024-01-07T21:19:30.947Z,101299.20
2024-01-07T21:24:34.444Z,101306.27
2024-01-07T21:29:36.295Z,101312.13
2024-01-07T21:34:38.812Z,101315.01
2024-01-07T21:39:42.339Z,101322.99
2024-01-07T21:44:45.739Z,101326.72
2024-01-07T21:49:49.239Z,101333.97
2024-01-07T21:54:51.060Z,101333.22
2024-01-07T21:59:53.213Z,101331.34
2024-01-07T22:04:55.290Z,101339.77
2024-01-07T22:09:58.882Z,101345.09
2024-01-07T22:15:00.665Z,101352.32
2024-01-07T22:20:02.855Z,101363.84
2024-01-07T22:25:05.446Z,101370.25
2024-01-07T22:30:07.996Z,101369.26
2024-01-07T22:35:11.408Z,101371.61
2024-01-07T22:40:13.248Z,101371.83
2024-01-07T22:45:15.087Z,101375.58
2024-01-07T22:50:17.163Z,101382.37
2024-01-07T22:55:19.076Z,101381.47
2024-01-07T23:00:24.673Z,101389.95
2024-01-07T23:05:26.959Z,101396.39
2024-01-07T23:10:29.160Z,101402.24
2024-01-07T23:15:31.041Z,101408.60
2024-01-07T23:20:35.173Z,101413.91
2024-01-07T23:25:37.477Z,101410.96
2024-01-07T23:30:39.862Z,101414.20
2024-01-07T23:35:50.528Z,101413.63
2024-01-07T23:41:00.059Z,101426.48
2024-01-07T23:46:02.078Z,101434.48
2024-01-07T23:51:04.320Z,101433.85
2024-01-07T23:56:06.462Z,101425.33
